Hlavní strana
METAR-TAF:

METAR-TAF

Letiště :

Bělehrad, Srbsko

Letiště Bělehrad

zeměpisná šířka: 44-49N, zeměpisná délka: 020-17E, výška: 96 m

Aktuální stav počasí

Zpráva byla vytvořena před 32 minutami, v 09:00 UTC
Jihovýchodní vítr 8 kt
Teplota 2°C
Vlhkost vzduchu 75%
Tlak 1034 hPa
Viditelnost: 6000 m

METAR: LYBE 240900Z 14008KT 6000 NSC 02/M02 Q1034 NOSIG

Čas: 10:32 (09:32 UTC)

Předpověď počasí

Zpráva byla vytvořena před 4 hodinami a 32 minutami, v 05:00 UTC
Předpověď platná od 24 v 06 UTC do 25 v 06 UTC
Východojihovýchodní vítr 4 kt
Viditelnost: 5000 m
Polojasno ve výšce 3000 ft
kouřmo
Dočasný
od 24 v 06 UTC do 24 v 08 UTC
Viditelnost: 3000 m
Změna
od 24 v 09 UTC do 24 v 11 UTC
Viditelnost: 8000 m
Změna
od 24 v 16 UTC do 24 v 18 UTC
Jihovýchodní vítr 14 kt

TAF: LYBE 240500Z 2406/2506 12004KT 5000 BR SCT030 TX05/2412Z TNM00/2505Z TEMPO 2406/2408 3000 BECMG 2409/2411 8000 NSW BECMG 2416/2418 14014KT

Stav a předpovědi počasí z více než 4 000 letišť (zprávy METAR a TAF).

Červené a žluté tečky na mapě představují dostupné meteorologické stanice.

Když kurzor umístíte na tečku, zobrazí se název stanice.

Pak kliknutím zobrazíte stav a předpověď počasí.

Chcete-li změnit mapu, kliknutím na zelené tlačítko se znaménkem +mapu přiblížíte, kliknutím na zelené tlačítko se znaménkem – mapu oddálíte a kliknutím na zelené šipky přejdete na sousední mapy.


METAR-TAF: